Time;durP1;ratioP1;P1;durP2;ratioP2;P2;SDS_P1;SDS_P2;PMS_P1;PMS_P2;Temp;Humidity;BMP_temperature;BMP_pressure;BME280_temperature;BME280_humidity;BME280_pressure;Samples;Min_cycle;Max_cycle;Signal;HPM_P1;HPM_P2
2024/02/14 00:10:51;;;;;;;;;;;;;;;14.46;92.87;100218.51;106675;1256;68373;-87
2024/02/14 00:13:25;;;;;;;;;;;;;;;14.45;92.83;100219.34;106801;1266;72622;-83
2024/02/14 00:15:53;;;;;;;;;;;;;;;14.37;93.61;100225.30;106618;1252;60562;-84
2024/02/14 00:18:27;;;;;;;;;;;;;;;14.33;94.25;100220.17;106460;1254;60487;-87
2024/02/14 00:21:07;;;;;;;;;;;;;;;14.38;94.07;100218.41;107173;1256;72547;-87
2024/02/14 00:23:41;;;;;;;;;;;;;;;14.50;93.35;100221.77;106604;1254;68424;-83
2024/02/14 00:26:15;;;;;;;;;;;;;;;14.43;93.48;100224.63;107005;1256;72711;-87
2024/02/14 00:28:48;;;;;;;;;;;;;;;14.40;94.00;100229.58;106623;1253;60429;-87
2024/02/14 00:31:28;;;;;;;;;;;;;;;14.40;94.33;100231.50;106426;1257;259081;-86
2024/02/14 00:34:02;;;;;;;;;;;;;;;14.44;94.36;100232.19;106614;1253;72650;-83
2024/02/14 00:36:37;;;;;;;;;;;;;;;14.52;94.17;100230.69;106673;1254;68536;-87
2024/02/14 00:39:11;;;;;;;;;;;;;;;14.51;94.39;100235.45;106436;1257;72749;-87
2024/02/14 00:41:52;;;;;;;;;;;;;;;14.50;94.31;100232.88;106488;1256;62179;-83
2024/02/14 00:44:20;;;;;;;;;;;;;;;14.65;92.72;100230.11;106586;1257;60509;-83
2024/02/14 00:46:59;;;;;;;;;;;;;;;14.44;93.90;100229.83;106604;1254;73856;-83
2024/02/14 00:49:33;;;;;;;;;;;;;;;14.29;95.50;100223.90;107070;1254;68893;-87
2024/02/14 00:52:13;;;;;;;;;;;;;;;14.43;95.50;100217.20;106400;1257;71463;-83
2024/02/14 00:54:40;;;;;;;;;;;;;;;14.45;95.45;100217.60;106601;1253;60614;-83
2024/02/14 00:57:14;;;;;;;;;;;;;;;14.40;96.09;100211.77;106634;1257;60423;-83
2024/02/14 00:59:48;;;;;;;;;;;;;;;14.42;96.41;100214.27;106471;1254;73824;-87
2024/02/14 01:02:23;;;;;;;;;;;;;;;14.47;96.02;100210.50;106501;1256;68482;-83
2024/02/14 01:04:51;;;;;;;;;;;;;;;14.56;95.81;100210.42;106407;1254;71505;-87
2024/02/14 01:07:25;;;;;;;;;;;;;;;14.63;95.59;100208.52;106485;1252;60597;-87
2024/02/14 01:10:04;;;;;;;;;;;;;;;14.70;95.24;100210.21;106318;1253;60471;-83
2024/02/14 01:12:44;;;;;;;;;;;;;;;14.69;95.70;100216.55;106617;1253;73774;-84
2024/02/14 01:15:12;;;;;;;;;;;;;;;14.88;94.63;100222.36;106872;1254;68829;-87
2024/02/14 01:17:47;;;;;;;;;;;;;;;14.88;94.25;100220.85;106640;1257;71388;-83
2024/02/14 01:23:22;;;;;;;;;;;;;;;14.86;94.37;100222.63;103091;1291;600532;-83
2024/02/14 01:25:56;;;;;;;;;;;;;;;14.81;94.45;100229.84;105423;1267;61763;-80
2024/02/14 01:28:35;;;;;;;;;;;;;;;14.90;94.21;100228.47;105483;1272;59300;-81
2024/02/14 01:31:15;;;;;;;;;;;;;;;14.82;94.65;100224.11;105389;1266;72205;-81
2024/02/14 01:33:55;;;;;;;;;;;;;;;14.76;95.09;100226.13;105379;1266;70554;-83
2024/02/14 01:36:29;;;;;;;;;;;;;;;14.68;95.79;100228.73;105277;1266;259010;-83
2024/02/14 01:39:03;;;;;;;;;;;;;;;14.73;95.80;100228.85;105544;1266;61777;-83
2024/02/14 01:41:52;;;;;;;;;;;;;;;14.79;95.66;100226.27;105655;1264;60035;-83
2024/02/14 01:44:32;;;;;;;;;;;;;;;14.77;95.73;100218.52;105540;1264;71055;-81
2024/02/14 01:47:06;;;;;;;;;;;;;;;14.80;94.86;100223.27;105480;1269;67166;-83
2024/02/14 01:49:44;;;;;;;;;;;;;;;14.88;94.34;100229.02;105666;1266;72734;-83
2024/02/14 01:52:18;;;;;;;;;;;;;;;14.98;93.41;100226.00;105525;1265;60122;-81
2024/02/14 01:54:58;;;;;;;;;;;;;;;14.91;93.89;100222.50;105401;1266;59563;-83
2024/02/14 01:57:32;;;;;;;;;;;;;;;15.02;92.99;100222.05;105411;1271;73095;-83
2024/02/14 02:00:00;;;;;;;;;;;;;;;15.07;92.27;100226.83;106004;1262;67142;-83
2024/02/14 02:02:36;;;;;;;;;;;;;;;15.04;92.53;100225.91;105895;1257;72685;-83
2024/02/14 02:05:13;;;;;;;;;;;;;;;14.91;93.14;100232.77;106044;1262;59817;-80
2024/02/14 02:07:48;;;;;;;;;;;;;;;15.00;92.75;100233.98;106198;1259;59728;-81
2024/02/14 02:10:16;;;;;;;;;;;;;;;15.07;92.50;100236.42;105937;1262;71633;-80
2024/02/14 02:12:50;;;;;;;;;;;;;;;15.07;92.64;100233.76;106077;1262;68361;-81
2024/02/14 02:15:30;;;;;;;;;;;;;;;15.08;92.63;100238.91;106201;1257;72491;-83
2024/02/14 02:17:59;;;;;;;;;;;;;;;15.28;91.29;100234.65;106032;1262;60376;-83
2024/02/14 02:20:42;;;;;;;;;;;;;;;15.28;91.02;100236.14;106035;1259;59816;-81
2024/02/14 02:23:22;;;;;;;;;;;;;;;15.06;92.62;100245.44;105915;1258;73030;-80
2024/02/14 02:26:02;;;;;;;;;;;;;;;15.03;93.49;100254.39;105936;1259;68808;-81
2024/02/14 02:28:36;;;;;;;;;;;;;;;15.13;93.01;100253.65;106300;1262;71391;-80
2024/02/14 02:31:10;;;;;;;;;;;;;;;15.18;92.85;100252.92;106036;1260;60446;-80
2024/02/14 02:33:51;;;;;;;;;;;;;;;15.17;93.14;100256.14;106034;1262;59735;-83
2024/02/14 02:36:31;;;;;;;;;;;;;;;15.26;92.70;100260.23;106122;1262;73059;-83
2024/02/14 02:39:04;;;;;;;;;;;;;;;15.36;91.85;100253.70;105883;1259;68848;-80
2024/02/14 02:41:38;;;;;;;;;;;;;;;15.27;92.02;100249.55;106075;1263;73235;-81
2024/02/14 02:44:18;;;;;;;;;;;;;;;15.11;93.19;100246.47;105913;1263;61885;-80
2024/02/14 02:46:58;;;;;;;;;;;;;;;15.04;93.14;100242.02;105931;1259;59556;-80
2024/02/14 02:49:25;;;;;;;;;;;;;;;14.93;93.44;100238.52;105879;1263;73105;-80
2024/02/14 02:51:59;;;;;;;;;;;;;;;14.99;92.62;100242.55;106176;1262;67285;-80
2024/02/14 02:54:36;;;;;;;;;;;;;;;15.11;91.88;100248.32;106099;1263;72710;-81
2024/02/14 02:57:10;;;;;;;;;;;;;;;15.01;92.66;100254.06;105983;1261;59739;-83
2024/02/14 02:59:42;;;;;;;;;;;;;;;14.84;94.18;100263.27;105950;1261;59752;-80
2024/02/14 03:02:16;;;;;;;;;;;;;;;14.84;94.62;100262.02;105945;1263;71555;-80
2024/02/14 03:04:56;;;;;;;;;;;;;;;14.92;93.89;100255.05;105999;1256;67584;-83
2024/02/14 03:07:24;;;;;;;;;;;;;;;14.92;93.05;100253.84;106072;1257;72842;-81
2024/02/14 03:09:58;;;;;;;;;;;;;;;15.23;90.60;100252.34;106037;1257;60100;-83
2024/02/14 03:12:32;;;;;;;;;;;;;;;15.21;90.06;100251.84;105995;1256;59859;-83
2024/02/14 03:15:09;;;;;;;;;;;;;;;15.16;90.32;100260.88;105930;1258;71768;-83
2024/02/14 03:17:38;;;;;;;;;;;;;;;14.92;91.68;100264.40;106024;1260;68714;-83
2024/02/14 03:20:15;;;;;;;;;;;;;;;14.67;93.57;100268.77;106021;1260;71411;-83
2024/02/14 03:22:57;;;;;;;;;;;;;;;14.55;95.77;100278.65;105895;1259;60084;-82
2024/02/14 03:25:26;;;;;;;;;;;;;;;14.64;95.58;100278.44;106048;1258;59659;-83
2024/02/14 03:27:59;;;;;;;;;;;;;;;14.61;96.02;100282.14;105980;1263;73036;-82
2024/02/14 03:30:33;;;;;;;;;;;;;;;14.68;95.44;100281.99;105936;1263;67153;-81
2024/02/14 03:33:10;;;;;;;;;;;;;;;14.49;96.47;100290.31;105945;1264;71528;-80
2024/02/14 03:35:41;;;;;;;;;;;;;;;14.58;95.95;100283.63;106040;1256;61671;-81
2024/02/14 03:38:34;;;;;;;;;;;;;;;14.54;96.27;100285.98;105995;1263;59497;-83
2024/02/14 03:41:13;;;;;;;;;;;;;;;14.62;95.60;100290.35;106012;1258;72990;-81
2024/02/14 03:43:58;;;;;;;;;;;;;;;14.72;95.04;100289.44;106040;1256;68524;-83
2024/02/14 03:46:31;;;;;;;;;;;;;;;14.72;95.16;100289.98;106097;1260;73361;-83
2024/02/14 03:49:12;;;;;;;;;;;;;;;14.73;95.14;100291.09;105878;1264;60456;-81
2024/02/14 03:51:56;;;;;;;;;;;;;;;14.78;94.66;100292.59;106028;1258;59727;-83
2024/02/14 03:54:36;;;;;;;;;;;;;;;14.67;95.74;100290.30;106068;1263;73032;-83
2024/02/14 03:57:16;;;;;;;;;;;;;;;14.72;95.84;100290.92;106039;1257;68780;-83
2024/02/14 03:59:55;;;;;;;;;;;;;;;14.80;95.16;100293.64;106046;1258;74612;-80
2024/02/14 04:02:33;;;;;;;;;;;;;;;14.94;94.19;100294.34;105912;1263;60359;-83
2024/02/14 04:05:09;;;;;;;;;;;;;;;14.94;94.04;100297.09;105889;1262;60978;-80
2024/02/14 04:07:48;;;;;;;;;;;;;;;15.09;92.76;100289.90;106006;1257;71800;-83
2024/02/14 04:10:23;;;;;;;;;;;;;;;14.86;93.74;100299.16;106011;1258;68686;-81
2024/02/14 04:12:58;;;;;;;;;;;;;;;14.96;93.73;100302.15;106001;1259;71882;-83
2024/02/14 04:15:32;;;;;;;;;;;;;;;15.02;93.37;100303.43;106153;1261;59750;-83
2024/02/14 04:18:00;;;;;;;;;;;;;;;14.93;93.44;100299.37;105902;1263;59822;-82
2024/02/14 04:20:39;;;;;;;;;;;;;;;14.84;93.70;100301.09;106085;1264;72802;-82
2024/02/14 04:23:13;;;;;;;;;;;;;;;14.82;94.13;100306.67;105984;1258;68729;-80
2024/02/14 04:25:48;;;;;;;;;;;;;;;14.89;93.72;100309.87;105985;1261;72802;-80
2024/02/14 04:28:21;;;;;;;;;;;;;;;14.88;93.09;100312.86;106005;1257;59754;-83
2024/02/14 04:31:01;;;;;;;;;;;;;;;14.94;91.82;100318.56;106391;1263;60697;-82
2024/02/14 04:33:41;;;;;;;;;;;;;;;15.06;90.27;100319.26;105870;1263;73103;-82
2024/02/14 04:36:22;;;;;;;;;;;;;;;15.02;89.52;100320.13;105939;1263;68369;-80
2024/02/14 04:38:56;;;;;;;;;;;;;;;14.74;91.10;100327.67;106112;1263;72692;-80
2024/02/14 04:41:37;;;;;;;;;;;;;;;14.68;91.32;100330.71;106079;1263;61699;-80
2024/02/14 04:44:29;;;;;;;;;;;;;;;14.66;91.04;100337.41;106328;1258;59735;-80
2024/02/14 04:47:03;;;;;;;;;;;;;;;14.56;91.77;100345.59;106064;1262;73043;-82
2024/02/14 04:49:37;;;;;;;;;;;;;;;14.36;93.51;100348.52;105992;1263;67122;-81
2024/02/14 04:52:05;;;;;;;;;;;;;;;14.30;94.25;100348.11;105986;1262;71405;-80
2024/02/14 04:54:39;;;;;;;;;;;;;;;14.33;94.01;100349.59;106058;1260;59725;-80
2024/02/14 04:57:06;;;;;;;;;;;;;;;14.28;94.09;100349.09;106214;1257;59893;-83
2024/02/14 04:59:40;;;;;;;;;;;;;;;14.28;93.71;100349.19;106102;1263;73033;-82
2024/02/14 05:02:08;;;;;;;;;;;;;;;14.36;92.75;100348.65;106063;1261;68904;-82
2024/02/14 05:04:41;;;;;;;;;;;;;;;14.32;92.48;100346.96;105981;1263;72637;-83
2024/02/14 05:07:09;;;;;;;;;;;;;;;14.24;92.63;100351.52;106022;1257;60551;-81
2024/02/14 05:09:44;;;;;;;;;;;;;;;14.09;93.60;100359.35;105925;1262;59890;-80
2024/02/14 05:12:12;;;;;;;;;;;;;;;13.72;96.06;100361.36;106146;1258;73149;-83
2024/02/14 05:14:46;;;;;;;;;;;;;;;13.85;95.78;100363.65;105933;1258;67734;-83
2024/02/14 05:17:13;;;;;;;;;;;;;;;13.71;97.09;100374.36;106285;1259;72780;-83
2024/02/14 05:19:47;;;;;;;;;;;;;;;13.70;97.77;100376.56;105860;1263;60047;-83
2024/02/14 05:22:15;;;;;;;;;;;;;;;13.70;98.29;100380.14;106179;1263;60240;-80
2024/02/14 05:24:49;;;;;;;;;;;;;;;13.85;97.79;100381.56;105917;1264;72763;-83
2024/02/14 05:27:16;;;;;;;;;;;;;;;13.79;98.37;100386.86;106183;1263;68736;-83
2024/02/14 05:29:50;;;;;;;;;;;;;;;13.75;98.98;100390.09;105899;1261;71526;-83
2024/02/14 05:32:18;;;;;;;;;;;;;;;13.69;99.09;100390.54;106219;1261;60376;-83
2024/02/14 05:34:51;;;;;;;;;;;;;;;13.64;99.70;100394.52;105980;1262;60221;-81
2024/02/14 05:37:19;;;;;;;;;;;;;;;13.72;98.96;100395.19;106244;1261;73057;-80
2024/02/14 05:39:53;;;;;;;;;;;;;;;13.72;98.83;100396.19;106022;1262;67455;-83
2024/02/14 05:42:21;;;;;;;;;;;;;;;13.74;98.65;100399.16;106434;1262;71412;-83
2024/02/14 05:44:55;;;;;;;;;;;;;;;13.74;98.77;100398.50;106291;1259;60526;-80
2024/02/14 05:47:22;;;;;;;;;;;;;;;13.60;99.67;100397.77;106185;1261;60417;-80
2024/02/14 05:49:56;;;;;;;;;;;;;;;13.62;99.66;100401.31;105915;1257;74112;-83
2024/02/14 05:52:25;;;;;;;;;;;;;;;13.60;99.41;100406.61;106013;1263;68452;-81
2024/02/14 05:54:59;;;;;;;;;;;;;;;13.53;99.87;100409.27;105885;1260;71409;-80
2024/02/14 05:57:27;;;;;;;;;;;;;;;13.49;100.00;100406.17;105975;1257;60524;-80
2024/02/14 06:00:02;;;;;;;;;;;;;;;13.50;100.00;100411.44;105870;1262;60541;-83
2024/02/14 06:02:39;;;;;;;;;;;;;;;13.53;99.77;100407.77;106070;1258;72887;-83
2024/02/14 06:05:13;;;;;;;;;;;;;;;13.54;99.55;100412.21;105952;1259;68673;-83
2024/02/14 06:07:41;;;;;;;;;;;;;;;13.56;98.98;100405.42;105936;1263;71376;-83
2024/02/14 06:10:14;;;;;;;;;;;;;;;13.57;98.54;100402.16;106053;1263;60411;-83
2024/02/14 06:12:44;;;;;;;;;;;;;;;13.49;99.25;100406.96;105961;1258;62746;-83
2024/02/14 06:15:18;;;;;;;;;;;;;;;13.52;99.25;100406.04;105989;1258;74358;-83
2024/02/14 06:17:48;;;;;;;;;;;;;;;13.57;98.74;100408.10;105969;1262;67115;-80
2024/02/14 06:20:23;;;;;;;;;;;;;;;13.68;97.89;100404.72;106047;1256;72701;-83
2024/02/14 06:22:54;;;;;;;;;;;;;;;13.66;97.64;100407.89;105979;1258;60529;-83
2024/02/14 06:25:38;;;;;;;;;;;;;;;13.69;97.78;100414.53;106205;1261;60463;-83
2024/02/14 06:28:05;;;;;;;;;;;;;;;13.76;98.11;100423.64;106029;1258;72885;-83
2024/02/14 06:30:33;;;;;;;;;;;;;;;13.87;97.94;100429.38;105950;1257;68403;-83
2024/02/14 06:33:04;;;;;;;;;;;;;;;13.97;97.61;100433.91;105976;1261;73090;-81
2024/02/14 06:35:39;;;;;;;;;;;;;;;14.09;97.38;100441.28;105757;1257;61848;-82
2024/02/14 06:38:11;;;;;;;;;;;;;;;14.20;96.95;100439.16;105957;1257;60403;-81
2024/02/14 06:40:44;;;;;;;;;;;;;;;14.37;95.84;100443.58;106020;1263;72570;-83
2024/02/14 06:43:14;;;;;;;;;;;;;;;14.32;96.04;100439.38;106023;1263;68210;-81
2024/02/14 06:45:48;;;;;;;;;;;;;;;14.34;96.21;100439.00;105997;1257;71423;-81
2024/02/14 06:48:21;;;;;;;;;;;;;;;14.42;96.23;100440.49;106125;1257;60503;-80
2024/02/14 06:50:55;;;;;;;;;;;;;;;14.48;95.15;100437.90;106218;1258;60541;-80
2024/02/14 06:53:24;;;;;;;;;;;;;;;14.84;93.27;100439.83;106169;1257;72873;-80
2024/02/14 06:55:58;;;;;;;;;;;;;;;15.00;91.16;100446.30;106067;1264;68507;-83
2024/02/14 06:58:29;;;;;;;;;;;;;;;14.71;92.57;100447.87;106091;1259;72282;-83
2024/02/14 07:01:03;;;;;;;;;;;;;;;14.70;92.11;100448.39;106413;1257;60505;-83
2024/02/14 07:03:32;;;;;;;;;;;;;;;15.10;88.66;100448.85;105890;1257;60515;-83
2024/02/14 07:06:07;;;;;;;;;;;;;;;14.87;89.36;100446.04;106083;1257;72669;-80
2024/02/14 07:08:37;;;;;;;;;;;;;;;14.83;88.98;100448.91;106204;1257;68672;-83
2024/02/14 14:11:01;;;;;;;;;;;;;;;15.01;99.37;100754.15;106378;1254;73732;-81
2024/02/14 14:13:42;;;;;;;;;;;;;;;15.06;98.56;100760.01;106318;1253;60595;-81
2024/02/14 14:16:22;;;;;;;;;;;;;;;14.78;99.91;100761.09;106507;1253;62164;-81
2024/02/14 14:19:03;;;;;;;;;;;;;;;14.48;100.00;100760.70;106252;1253;74258;-81
2024/02/14 14:21:43;;;;;;;;;;;;;;;14.55;100.00;100760.66;106493;1253;74410;-83
2024/02/14 14:24:23;;;;;;;;;;;;;;;14.53;100.00;100757.55;106516;1253;74824;-81
2024/02/14 14:27:03;;;;;;;;;;;;;;;14.65;100.00;100758.32;106446;1253;62768;-82
2024/02/14 14:29:43;;;;;;;;;;;;;;;14.54;100.00;100757.20;106395;1258;61700;-81
2024/02/14 14:32:23;;;;;;;;;;;;;;;14.53;100.00;100759.87;106345;1256;75866;-82
2024/02/14 14:35:03;;;;;;;;;;;;;;;14.42;100.00;100759.41;106453;1253;69299;-82
2024/02/14 14:37:43;;;;;;;;;;;;;;;14.31;100.00;100756.37;106477;1256;74722;-82
2024/02/14 14:40:24;;;;;;;;;;;;;;;14.22;100.00;100758.77;106523;1254;60394;-82
2024/02/14 14:43:04;;;;;;;;;;;;;;;14.06;100.00;100766.23;106447;1253;60917;-82
2024/02/14 14:45:44;;;;;;;;;;;;;;;14.07;100.00;100770.42;106375;1254;74709;-82
2024/02/14 14:48:27;;;;;;;;;;;;;;;14.04;100.00;100770.15;106372;1253;70718;-82
2024/02/14 14:51:08;;;;;;;;;;;;;;;13.91;100.00;100768.51;106292;1253;73716;-82
2024/02/14 14:53:48;;;;;;;;;;;;;;;13.97;100.00;100772.23;106440;1253;63998;-82
2024/02/14 14:56:29;;;;;;;;;;;;;;;14.05;100.00;100771.09;106342;1253;61964;-81
2024/02/14 14:59:09;;;;;;;;;;;;;;;14.01;100.00;100774.55;106437;1253;76157;-81
2024/02/14 15:01:50;;;;;;;;;;;;;;;13.98;100.00;100776.54;106567;1256;68628;-81
2024/02/14 15:04:29;;;;;;;;;;;;;;;13.97;100.00;100778.48;106385;1253;74958;-81
2024/02/14 15:07:10;;;;;;;;;;;;;;;14.09;100.00;100781.30;106411;1253;63064;-81
2024/02/14 15:09:49;;;;;;;;;;;;;;;14.12;100.00;100783.67;106225;1253;60036;-81
2024/02/14 15:12:29;;;;;;;;;;;;;;;14.29;100.00;100784.72;106333;1254;74203;-81
2024/02/14 15:15:09;;;;;;;;;;;;;;;14.27;100.00;100787.06;106434;1253;70677;-81
2024/02/14 15:17:53;;;;;;;;;;;;;;;14.33;100.00;100790.48;106361;1253;73827;-81
2024/02/14 15:20:35;;;;;;;;;;;;;;;14.38;100.00;100790.36;106439;1253;62383;-81
2024/02/14 15:23:15;;;;;;;;;;;;;;;14.44;100.00;100791.92;106255;1253;61740;-82
2024/02/14 15:25:49;;;;;;;;;;;;;;;14.46;100.00;100792.73;106392;1253;74928;-81
2024/02/14 15:28:26;;;;;;;;;;;;;;;14.45;100.00;100791.80;106403;1253;69607;-86
2024/02/14 15:33:55;;;;;;;;;;;;;;;14.39;100.00;100797.33;106390;1254;60620;-85
2024/02/14 15:36:29;;;;;;;;;;;;;;;14.56;100.00;100798.80;106426;1253;60970;-85
2024/02/14 15:39:03;;;;;;;;;;;;;;;14.60;100.00;100803.81;106247;1253;74835;-84
2024/02/14 15:41:37;;;;;;;;;;;;;;;14.64;100.00;100803.61;106313;1253;70128;-85
2024/02/14 15:44:11;;;;;;;;;;;;;;;14.63;100.00;100809.44;106260;1253;73547;-84
2024/02/14 15:46:45;;;;;;;;;;;;;;;14.55;100.00;100817.52;106294;1257;62547;-85
2024/02/14 15:49:19;;;;;;;;;;;;;;;14.63;100.00;100818.96;106329;1256;61862;-85
2024/02/14 15:51:53;;;;;;;;;;;;;;;14.59;100.00;100821.62;106107;1253;73517;-85
2024/02/14 15:54:27;;;;;;;;;;;;;;;14.40;100.00;100832.06;106564;1253;69982;-85
2024/02/14 15:57:01;;;;;;;;;;;;;;;14.42;100.00;100834.13;106263;1260;73547;-85
2024/02/14 15:59:36;;;;;;;;;;;;;;;14.39;100.00;100839.79;106466;1253;63425;-85
2024/02/14 16:02:10;;;;;;;;;;;;;;;14.29;100.00;100836.27;106487;1252;60571;-86
2024/02/14 16:04:44;;;;;;;;;;;;;;;14.27;100.00;100835.81;106405;1253;73305;-84
2024/02/14 16:07:18;;;;;;;;;;;;;;;14.23;100.00;100844.39;106448;1253;69353;-84
2024/02/14 16:09:52;;;;;;;;;;;;;;;14.34;100.00;100842.70;106400;1253;74999;-80
2024/02/14 16:12:26;;;;;;;;;;;;;;;14.32;100.00;100839.05;106338;1253;62181;-81
2024/02/14 16:15:00;;;;;;;;;;;;;;;14.26;100.00;100845.49;106387;1257;61177;-80
2024/02/14 16:17:34;;;;;;;;;;;;;;;14.38;100.00;100846.50;106474;1253;75763;-80
2024/02/14 16:20:08;;;;;;;;;;;;;;;14.42;100.00;100849.15;106417;1254;69144;-80
2024/02/14 16:22:42;;;;;;;;;;;;;;;14.36;100.00;100849.89;106390;1254;75016;-82
2024/02/14 16:25:16;;;;;;;;;;;;;;;14.22;100.00;100851.60;106488;1258;64344;-85
2024/02/14 16:27:52;;;;;;;;;;;;;;;14.08;100.00;100852.98;106395;1251;60353;-85
2024/02/14 16:30:26;;;;;;;;;;;;;;;14.15;100.00;100851.41;106412;1258;77762;-85
2024/02/14 16:33:00;;;;;;;;;;;;;;;14.19;100.00;100854.38;106343;1258;69741;-85
2024/02/14 16:35:35;;;;;;;;;;;;;;;14.37;100.00;100859.89;106589;1253;73216;-85
2024/02/14 16:38:09;;;;;;;;;;;;;;;14.66;100.00;100862.70;106324;1253;61996;-85
2024/02/14 16:40:42;;;;;;;;;;;;;;;14.93;99.89;100864.23;106279;1258;60604;-85
2024/02/14 16:43:16;;;;;;;;;;;;;;;14.64;100.00;100867.06;106649;1258;75836;-85
2024/02/14 16:45:50;;;;;;;;;;;;;;;14.50;100.00;100872.20;106361;1258;69847;-85
2024/02/14 16:48:24;;;;;;;;;;;;;;;14.39;100.00;100872.94;106458;1260;74630;-85
2024/02/14 16:50:59;;;;;;;;;;;;;;;14.34;100.00;100875.25;106470;1253;62173;-86
2024/02/14 16:53:33;;;;;;;;;;;;;;;14.38;100.00;100875.91;106442;1253;62453;-85
2024/02/14 16:56:07;;;;;;;;;;;;;;;14.57;100.00;100879.70;106402;1253;75800;-84
2024/02/14 16:58:41;;;;;;;;;;;;;;;14.57;100.00;100886.86;106404;1253;69646;-85
2024/02/14 17:01:15;;;;;;;;;;;;;;;14.50;100.00;100891.45;106493;1253;74805;-84
2024/02/14 17:03:49;;;;;;;;;;;;;;;14.49;100.00;100892.95;106423;1253;64948;-84
2024/02/14 17:06:33;;;;;;;;;;;;;;;14.48;100.00;100891.51;106298;1258;62120;-84
2024/02/14 17:09:07;;;;;;;;;;;;;;;14.50;100.00;100888.30;106495;1253;75861;-85
2024/02/14 17:11:41;;;;;;;;;;;;;;;14.64;100.00;100890.02;106396;1258;70608;-85
2024/02/14 17:14:15;;;;;;;;;;;;;;;14.61;100.00;100892.58;106555;1253;74086;-85
2024/02/14 17:16:49;;;;;;;;;;;;;;;14.63;100.00;100893.62;106321;1253;62485;-85
2024/02/14 17:19:24;;;;;;;;;;;;;;;14.60;100.00;100898.64;106558;1254;60820;-85
2024/02/14 17:21:58;;;;;;;;;;;;;;;14.53;100.00;100901.42;106492;1258;74202;-86
2024/02/14 17:24:32;;;;;;;;;;;;;;;14.51;100.00;100905.30;106320;1253;69573;-86
2024/02/14 17:27:06;;;;;;;;;;;;;;;14.40;100.00;100901.23;106312;1253;73887;-86
2024/02/14 17:29:39;;;;;;;;;;;;;;;14.40;100.00;100904.64;106390;1258;61241;-83
2024/02/14 17:32:13;;;;;;;;;;;;;;;14.49;100.00;100907.45;106488;1257;62120;-83
2024/02/14 17:35:01;;;;;;;;;;;;;;;14.54;100.00;100908.95;106195;1253;76474;-84
2024/02/14 17:37:36;;;;;;;;;;;;;;;14.60;100.00;100915.64;106361;1253;70369;-84
2024/02/14 17:40:12;;;;;;;;;;;;;;;14.52;100.00;100922.33;106284;1256;75058;-84
2024/02/14 17:42:45;;;;;;;;;;;;;;;14.28;100.00;100922.70;106301;1256;61146;-84
2024/02/14 17:45:19;;;;;;;;;;;;;;;14.09;100.00;100920.89;106273;1253;60442;-84
2024/02/14 17:47:53;;;;;;;;;;;;;;;14.03;100.00;100920.63;106282;1253;76052;-85
2024/02/14 17:50:27;;;;;;;;;;;;;;;14.11;100.00;100920.38;106389;1258;70402;-85
2024/02/14 17:53:02;;;;;;;;;;;;;;;14.06;100.00;100919.98;106337;1253;73967;-85
2024/02/14 17:55:36;;;;;;;;;;;;;;;13.88;100.00;100926.98;106302;1253;63820;-85
2024/02/14 17:58:09;;;;;;;;;;;;;;;13.83;100.00;100934.13;106447;1257;60339;-85
2024/02/14 18:00:44;;;;;;;;;;;;;;;13.88;100.00;100941.71;106419;1254;75201;-87
2024/02/14 18:03:18;;;;;;;;;;;;;;;13.77;100.00;100938.23;106658;1256;69961;-81
2024/02/14 18:05:52;;;;;;;;;;;;;;;13.75;100.00;100937.93;106414;1256;74980;-81
2024/02/14 18:08:26;;;;;;;;;;;;;;;13.77;100.00;100939.17;106264;1256;61225;-81
2024/02/14 18:11:00;;;;;;;;;;;;;;;13.69;100.00;100938.27;106404;1255;60431;-81
2024/02/14 18:13:34;;;;;;;;;;;;;;;13.63;100.00;100926.18;106285;1259;76018;-81
2024/02/14 18:16:08;;;;;;;;;;;;;;;13.79;100.00;100925.86;106441;1256;67919;-82
2024/02/14 18:18:45;;;;;;;;;;;;;;;13.87;99.77;100922.55;106582;1253;74008;-82
2024/02/14 18:21:19;;;;;;;;;;;;;;;13.88;99.04;100923.09;106301;1259;60446;-82
2024/02/14 18:23:53;;;;;;;;;;;;;;;13.67;99.36;100929.49;106433;1253;60331;-83
2024/02/14 18:26:27;;;;;;;;;;;;;;;13.42;100.00;100935.52;106635;1251;73711;-82
2024/02/14 18:29:01;;;;;;;;;;;;;;;13.38;100.00;100937.98;106343;1253;69511;-82
2024/02/14 18:31:34;;;;;;;;;;;;;;;13.51;99.98;100935.40;106256;1255;74872;-82
2024/02/14 18:34:08;;;;;;;;;;;;;;;13.38;100.00;100941.98;106610;1253;64298;-82
2024/02/14 18:36:42;;;;;;;;;;;;;;;13.31;100.00;100939.23;106348;1253;62462;-82
2024/02/14 18:39:16;;;;;;;;;;;;;;;13.25;100.00;100942.48;106487;1256;75308;-82
2024/02/14 18:41:53;;;;;;;;;;;;;;;13.37;100.00;100944.67;106479;1258;69713;-82
2024/02/14 18:44:26;;;;;;;;;;;;;;;13.40;99.90;100948.27;106352;1256;73726;-82
2024/02/14 18:47:01;;;;;;;;;;;;;;;13.51;99.03;100952.04;106485;1253;62669;-82
2024/02/14 18:49:36;;;;;;;;;;;;;;;13.66;97.64;100955.05;106567;1253;60646;-82
2024/02/14 18:52:10;;;;;;;;;;;;;;;13.53;98.05;100961.86;106507;1253;76003;-82
2024/02/14 18:54:44;;;;;;;;;;;;;;;13.59;97.88;100963.61;106444;1253;69971;-81
2024/02/14 18:57:18;;;;;;;;;;;;;;;13.58;97.73;100963.19;106345;1253;76320;-82
2024/02/14 18:59:53;;;;;;;;;;;;;;;13.56;97.94;100964.73;106458;1256;62634;-81
2024/02/14 19:02:31;;;;;;;;;;;;;;;13.58;97.64;100965.61;106398;1258;60401;-81
2024/02/14 19:05:08;;;;;;;;;;;;;;;13.31;99.54;100967.33;106366;1258;75732;-81
2024/02/14 19:07:43;;;;;;;;;;;;;;;13.50;97.89;100965.77;106381;1251;69449;-80
2024/02/14 19:10:17;;;;;;;;;;;;;;;13.56;96.80;100966.00;106251;1256;74663;-81
2024/02/14 19:12:50;;;;;;;;;;;;;;;13.38;97.57;100967.29;106307;1258;63513;-81
2024/02/14 19:15:25;;;;;;;;;;;;;;;13.24;97.98;100968.45;106494;1253;60729;-80
2024/02/14 19:17:59;;;;;;;;;;;;;;;13.31;97.53;100971.27;106333;1253;75845;-81
2024/02/14 19:20:36;;;;;;;;;;;;;;;13.34;96.96;100974.66;106496;1253;70398;-81
2024/02/14 19:23:10;;;;;;;;;;;;;;;13.26;97.51;100975.48;106351;1254;75279;-82
2024/02/14 19:25:44;;;;;;;;;;;;;;;12.93;99.42;100980.37;106455;1253;62408;-82
2024/02/14 19:28:17;;;;;;;;;;;;;;;12.91;100.00;100981.48;106483;1253;62173;-80
2024/02/14 19:30:51;;;;;;;;;;;;;;;13.00;99.73;100981.05;106492;1253;75788;-80
2024/02/14 19:33:26;;;;;;;;;;;;;;;13.09;98.95;100980.56;106371;1255;70987;-80
2024/02/14 19:36:00;;;;;;;;;;;;;;;13.21;97.97;100983.18;106364;1255;73911;-81
2024/02/14 19:38:34;;;;;;;;;;;;;;;13.22;97.57;100983.19;106377;1254;64176;-81
2024/02/14 19:41:08;;;;;;;;;;;;;;;12.85;99.87;100984.02;106388;1253;60777;-81
2024/02/14 19:43:42;;;;;;;;;;;;;;;12.79;100.00;100988.02;106443;1256;75996;-81
2024/02/14 19:46:16;;;;;;;;;;;;;;;12.87;100.00;100993.23;106426;1257;69371;-81
2024/02/14 19:48:50;;;;;;;;;;;;;;;12.78;100.00;100993.17;106266;1259;73196;-80
2024/02/14 19:51:24;;;;;;;;;;;;;;;12.93;99.56;100991.83;106326;1253;63738;-80
2024/02/14 19:53:51;;;;;;;;;;;;;;;12.71;99.98;100999.98;106521;1257;60343;-80
2024/02/14 19:56:27;;;;;;;;;;;;;;;12.48;100.00;101008.02;106587;1256;75018;-80
2024/02/14 19:59:01;;;;;;;;;;;;;;;12.55;100.00;101012.27;106444;1257;70379;-80
2024/02/14 20:01:35;;;;;;;;;;;;;;;12.55;100.00;101017.92;106659;1258;74713;-81
2024/02/14 20:04:09;;;;;;;;;;;;;;;12.41;100.00;101026.14;106551;1251;61061;-80
2024/02/14 20:06:43;;;;;;;;;;;;;;;12.38;100.00;101025.26;106426;1253;60235;-80
2024/02/14 20:09:17;;;;;;;;;;;;;;;12.48;100.00;101024.52;106481;1255;75817;-80
2024/02/14 20:11:51;;;;;;;;;;;;;;;12.53;100.00;101023.36;106522;1256;70798;-81
2024/02/14 20:14:19;;;;;;;;;;;;;;;12.55;100.00;101026.20;106363;1253;74629;-80
2024/02/14 20:16:54;;;;;;;;;;;;;;;12.48;100.00;101031.33;106325;1258;62777;-80